Time,TemperatureF,DewpointF,PressureIn,WindDirection,WindDirectionDegrees,WindSpeedMPH,WindSpeedGustMPH,Humidity,HourlyPrecipIn,Conditions,Clouds,dailyrainin,SoftwareType,DateUTC
2013-09-12 11:27:00,81.3,72.6,29.84,NNE,24,1.0,5.0,75,0.00,,,0.00,Wunderground v.1.15,2013-09-12 15:27:00,
2013-09-12 11:29:00,81.5,72.8,29.83,NNE,24,0.0,5.0,75,0.00,,,0.00,Wunderground v.1.15,2013-09-12 15:29:00,
2013-09-12 11:30:00,81.6,73.3,29.83,NNE,26,0.0,5.0,76,0.00,,,0.00,Wunderground v.1.15,2013-09-12 15:30:00,
2013-09-12 11:32:00,81.9,72.8,29.83,NNE,28,0.0,5.0,74,0.00,,,0.00,Wunderground v.1.15,2013-09-12 15:32:00,
2013-09-12 11:33:00,82.0,72.9,29.83,NNE,13,0.0,7.0,74,0.00,,,0.00,Wunderground v.1.15,2013-09-12 15:33:00,
2013-09-12 11:38:00,82.0,72.5,29.83,NNE,21,1.0,5.0,73,0.00,,,0.00,Wunderground v.1.15,2013-09-12 15:38:00,
2013-09-12 11:44:00,82.1,72.2,29.83,NW,321,1.0,5.0,72,0.00,,,0.00,Wunderground v.1.15,2013-09-12 15:44:00,
2013-09-12 11:50:00,82.5,71.7,29.82,NW,321,0.0,5.0,70,0.00,,,0.00,Wunderground v.1.15,2013-09-12 15:50:00,
2013-09-12 11:55:00,83.2,72.0,29.82,WNW,300,1.0,5.0,69,0.00,,,0.00,Wunderground v.1.15,2013-09-12 15:55:00,
2013-09-12 12:01:00,83.4,70.8,29.81,West,265,3.0,6.0,66,0.00,,,0.00,Wunderground v.1.15,2013-09-12 16:01:00,
2013-09-12 12:06:00,83.6,71.5,29.81,NW,311,5.0,6.0,67,0.00,,,0.00,Wunderground v.1.15,2013-09-12 16:06:00,
2013-09-12 12:11:00,84.2,71.6,29.81,WNW,298,4.0,5.0,66,0.00,,,0.00,Wunderground v.1.15,2013-09-12 16:11:00,
2013-09-12 12:17:00,84.8,71.3,29.81,WNW,301,3.0,5.0,64,0.00,,,0.00,Wunderground v.1.15,2013-09-12 16:17:00,
2013-09-12 12:22:00,85.4,72.3,29.81,North,10,4.0,9.0,65,0.00,,,0.00,Wunderground v.1.15,2013-09-12 16:22:00,
2013-09-12 12:28:00,84.9,70.9,29.81,WNW,294,6.0,10.0,63,0.00,,,0.00,Wunderground v.1.15,2013-09-12 16:28:00,
2013-09-12 12:34:00,84.1,71.1,29.80,WNW,294,6.0,10.0,65,0.00,,,0.00,Wunderground v.1.15,2013-09-12 16:34:00,
2013-09-12 12:40:00,83.6,71.9,29.80,WSW,242,5.0,5.0,68,0.00,,,0.00,Wunderground v.1.15,2013-09-12 16:40:00,
2013-09-12 12:45:00,84.0,71.9,29.79,NNW,327,4.0,9.0,67,0.00,,,0.00,Wunderground v.1.15,2013-09-12 16:45:00,
2013-09-12 12:51:00,85.0,71.5,29.79,WNW,296,4.0,5.0,64,0.00,,,0.00,Wunderground v.1.15,2013-09-12 16:51:00,
2013-09-12 12:57:00,84.9,71.8,29.78,NNE,15,5.0,7.0,65,0.00,,,0.00,Wunderground v.1.15,2013-09-12 16:57:00,
2013-09-12 13:02:00,84.4,71.8,29.78,NW,325,3.0,5.0,66,0.00,,,0.00,Wunderground v.1.15,2013-09-12 17:02:00,
2013-09-12 13:08:00,84.7,72.1,29.78,West,281,1.0,6.0,66,0.00,,,0.00,Wunderground v.1.15,2013-09-12 17:08:00,
2013-09-12 13:14:00,85.2,72.6,29.78,West,281,2.0,5.0,66,0.00,,,0.00,Wunderground v.1.15,2013-09-12 17:14:00,
2013-09-12 13:20:00,84.5,71.4,29.78,NNW,341,3.0,5.0,65,0.00,,,0.00,Wunderground v.1.15,2013-09-12 17:20:00,
2013-09-12 13:25:00,84.1,71.1,29.77,SW,221,5.0,6.0,65,0.00,,,0.00,Wunderground v.1.15,2013-09-12 17:25:00,
2013-09-12 13:31:00,84.9,71.8,29.77,West,270,4.0,7.0,65,0.00,,,0.00,Wunderground v.1.15,2013-09-12 17:31:00,
2013-09-12 13:37:00,86.1,71.6,29.76,WSW,257,4.0,9.0,62,0.00,,,0.00,Wunderground v.1.15,2013-09-12 17:37:00,
2013-09-12 13:43:00,85.4,72.3,29.78,NW,325,7.0,14.0,65,0.00,,,0.00,Wunderground v.1.15,2013-09-12 17:43:00,
2013-09-12 13:48:00,82.1,70.5,29.78,NW,321,10.0,15.0,68,0.00,,,0.00,Wunderground v.1.15,2013-09-12 17:48:00,
2013-09-12 13:54:00,79.4,70.0,29.77,NNW,336,8.0,10.0,73,0.00,,,0.00,Wunderground v.1.15,2013-09-12 17:54:00,
2013-09-12 14:00:00,77.9,69.3,29.77,NNE,28,5.0,7.0,75,0.00,,,0.00,Wunderground v.1.15,2013-09-12 18:00:00,
2013-09-12 14:06:00,76.7,69.3,29.78,WNW,300,6.0,7.0,78,0.00,,,0.00,Wunderground v.1.15,2013-09-12 18:06:00,
2013-09-12 14:12:00,76.4,69.4,29.77,NNW,338,3.0,5.0,79,0.00,,,0.01,Wunderground v.1.15,2013-09-12 18:12:00,
2013-09-12 14:18:00,76.3,70.0,29.76,NNW,338,1.0,5.0,81,0.12,,,0.02,Wunderground v.1.15,2013-09-12 18:18:00,
2013-09-12 14:24:00,76.0,70.5,29.76,NNW,338,0.0,5.0,83,0.55,,,0.06,Wunderground v.1.15,2013-09-12 18:24:00,
2013-09-12 14:29:00,75.5,70.7,29.75,NNW,338,0.0,5.0,85,0.10,,,0.06,Wunderground v.1.15,2013-09-12 18:29:00,
2013-09-12 14:34:00,75.1,71.0,29.74,WNW,296,1.0,6.0,87,0.05,,,0.06,Wunderground v.1.15,2013-09-12 18:34:00,
2013-09-12 14:40:00,75.3,71.8,29.75,West,279,2.0,6.0,89,0.04,,,0.06,Wunderground v.1.15,2013-09-12 18:40:00,
2013-09-12 14:46:00,75.7,72.2,29.75,West,279,3.0,6.0,89,0.00,,,0.06,Wunderground v.1.15,2013-09-12 18:46:00,
2013-09-12 14:52:00,76.4,72.9,29.75,West,279,2.0,5.0,89,0.00,,,0.06,Wunderground v.1.15,2013-09-12 18:52:00,
2013-09-12 14:57:00,77.0,73.5,29.74,West,280,1.0,5.0,89,0.00,,,0.06,Wunderground v.1.15,2013-09-12 18:57:00,
2013-09-12 15:03:00,78.2,74.7,29.74,WNW,289,1.0,5.0,89,0.00,,,0.06,Wunderground v.1.15,2013-09-12 19:03:00,
2013-09-12 15:09:00,78.7,74.2,29.73,NW,307,2.0,6.0,86,0.00,,,0.06,Wunderground v.1.15,2013-09-12 19:09:00,
2013-09-12 15:14:00,78.9,74.0,29.74,NNW,332,4.0,6.0,85,0.00,,,0.06,Wunderground v.1.15,2013-09-12 19:14:00,
2013-09-12 15:20:00,79.0,73.7,29.74,NNW,341,5.0,7.0,84,0.00,,,0.06,Wunderground v.1.15,2013-09-12 19:20:00,
2013-09-12 15:26:00,79.0,73.7,29.74,WNW,302,5.0,7.0,84,0.00,,,0.06,Wunderground v.1.15,2013-09-12 19:26:00,
2013-09-12 15:36:00,79.1,72.4,29.74,North,5,5.0,12.0,80,0.00,,,0.06,Wunderground v.1.15,2013-09-12 19:36:00,
2013-09-12 15:42:00,76.7,69.7,29.75,NNE,26,11.0,24.0,79,0.00,,,0.06,Wunderground v.1.15,2013-09-12 19:42:00,
2013-09-12 15:48:00,74.4,68.2,29.75,NNE,12,13.0,24.0,81,0.00,,,0.06,Wunderground v.1.15,2013-09-12 19:48:00,
2013-09-12 15:54:00,73.3,67.1,29.75,NE,37,10.0,12.0,81,0.00,,,0.06,Wunderground v.1.15,2013-09-12 19:54:00,
2013-09-12 16:00:00,72.9,66.7,29.75,North,360,7.0,7.0,81,0.00,,,0.06,Wunderground v.1.15,2013-09-12 20:00:00,
2013-09-12 16:05:00,72.8,67.0,29.74,West,271,4.0,7.0,82,0.00,,,0.06,Wunderground v.1.15,2013-09-12 20:05:00,
2013-09-12 16:11:00,72.9,66.7,29.74,WNW,298,4.0,5.0,81,0.00,,,0.06,Wunderground v.1.15,2013-09-12 20:11:00,
2013-09-12 16:17:00,73.0,66.8,29.74,NW,325,4.0,5.0,81,0.00,,,0.06,Wunderground v.1.15,2013-09-12 20:17:00,
2013-09-12 16:23:00,72.9,67.1,29.73,WNW,286,5.0,8.0,82,0.00,,,0.06,Wunderground v.1.15,2013-09-12 20:23:00,
2013-09-12 16:28:00,73.0,67.2,29.74,NW,325,4.0,8.0,82,0.00,,,0.06,Wunderground v.1.15,2013-09-12 20:28:00,
2013-09-12 16:34:00,73.4,67.6,29.73,WNW,300,3.0,5.0,82,0.00,,,0.06,Wunderground v.1.15,2013-09-12 20:34:00,
2013-09-12 16:40:00,73.8,68.0,29.73,WNW,302,2.0,2.0,82,0.00,,,0.06,Wunderground v.1.15,2013-09-12 20:40:00,
2013-09-12 16:46:00,74.0,67.8,29.73,WNW,302,2.0,5.0,81,0.00,,,0.06,Wunderground v.1.15,2013-09-12 20:46:00,
2013-09-12 16:52:00,74.1,67.9,29.73,WNW,302,1.0,5.0,81,0.00,,,0.06,Wunderground v.1.15,2013-09-12 20:52:00,
2013-09-12 16:58:00,74.0,67.8,29.73,WNW,302,0.0,5.0,81,0.00,,,0.06,Wunderground v.1.15,2013-09-12 20:58:00,
2013-09-12 17:04:00,73.9,67.3,29.75,WNW,297,1.0,5.0,80,0.00,,,0.06,Wunderground v.1.15,2013-09-12 21:04:00,
2013-09-12 17:09:00,73.3,66.4,29.75,NNW,327,4.0,13.0,79,0.36,,,0.09,Wunderground v.1.15,2013-09-12 21:09:00,
2013-09-12 17:15:00,71.6,65.8,29.75,WNW,287,6.0,10.0,82,0.34,,,0.14,Wunderground v.1.15,2013-09-12 21:15:00,
2013-09-12 17:21:00,70.4,66.0,29.76,West,265,4.0,6.0,86,0.20,,,0.17,Wunderground v.1.15,2013-09-12 21:21:00,
2013-09-12 17:27:00,69.4,65.7,29.74,West,265,3.0,6.0,88,0.16,,,0.19,Wunderground v.1.15,2013-09-12 21:27:00,
2013-09-12 17:32:00,68.9,65.5,29.74,WNW,290,3.0,7.0,89,0.09,,,0.19,Wunderground v.1.15,2013-09-12 21:32:00,
2013-09-12 17:38:00,68.6,65.5,29.73,NW,304,4.0,7.0,90,0.06,,,0.20,Wunderground v.1.15,2013-09-12 21:38:00,
2013-09-12 17:44:00,68.3,65.6,29.74,NW,304,4.0,5.0,91,0.06,,,0.20,Wunderground v.1.15,2013-09-12 21:44:00,
2013-09-12 17:50:00,68.2,65.5,29.73,WNW,295,5.0,5.0,91,0.04,,,0.20,Wunderground v.1.15,2013-09-12 21:50:00,
2013-09-12 17:56:00,68.2,65.8,29.73,WNW,295,2.0,6.0,92,0.00,,,0.20,Wunderground v.1.15,2013-09-12 21:56:00,
2013-09-12 18:02:00,68.1,65.7,29.72,NW,306,2.0,5.0,92,0.00,,,0.20,Wunderground v.1.15,2013-09-12 22:02:00,
2013-09-12 18:08:00,67.9,65.8,29.72,NW,307,2.0,5.0,93,0.00,,,0.20,Wunderground v.1.15,2013-09-12 22:08:00,
2013-09-12 18:13:00,67.8,65.7,29.72,NW,307,1.0,5.0,93,0.00,,,0.20,Wunderground v.1.15,2013-09-12 22:13:00,
2013-09-12 18:19:00,67.8,65.7,29.72,WNW,288,2.0,7.0,93,0.00,,,0.20,Wunderground v.1.15,2013-09-12 22:19:00,
2013-09-12 18:25:00,67.8,65.7,29.72,WNW,296,3.0,5.0,93,0.00,,,0.20,Wunderground v.1.15,2013-09-12 22:25:00,
2013-09-12 18:31:00,67.8,65.7,29.73,WNW,296,1.0,4.0,93,0.00,,,0.20,Wunderground v.1.15,2013-09-12 22:31:00,
2013-09-12 18:36:00,67.8,65.7,29.73,WNW,296,2.0,5.0,93,0.00,,,0.20,Wunderground v.1.15,2013-09-12 22:36:00,
2013-09-12 18:42:00,67.9,65.8,29.73,WNW,296,2.0,5.0,93,0.00,,,0.20,Wunderground v.1.15,2013-09-12 22:42:00,
2013-09-12 18:48:00,67.9,65.8,29.75,WNW,292,3.0,8.0,93,0.00,,,0.20,Wunderground v.1.15,2013-09-12 22:48:00,
2013-09-12 18:54:00,67.9,65.8,29.75,WNW,292,2.0,5.0,93,0.00,,,0.20,Wunderground v.1.15,2013-09-12 22:54:00,
2013-09-12 19:00:00,67.9,65.8,29.75,WNW,292,1.0,1.0,93,0.00,,,0.20,Wunderground v.1.15,2013-09-12 23:00:00,
2013-09-12 19:06:00,67.9,65.8,29.74,WNW,292,0.0,5.0,93,0.00,,,0.20,Wunderground v.1.15,2013-09-12 23:06:00,
2013-09-12 19:12:00,67.8,65.7,29.74,WNW,292,0.0,5.0,93,0.00,,,0.20,Wunderground v.1.15,2013-09-12 23:12:00,
2013-09-12 19:17:00,67.7,65.6,29.75,WNW,292,0.0,5.0,93,0.00,,,0.20,Wunderground v.1.15,2013-09-12 23:17:00,
2013-09-12 19:22:00,67.6,65.5,29.75,WNW,292,0.0,5.0,93,0.00,,,0.20,Wunderground v.1.15,2013-09-12 23:22:00,
2013-09-12 19:28:00,67.5,65.7,29.75,WNW,292,0.0,5.0,94,0.00,,,0.20,Wunderground v.1.15,2013-09-12 23:28:00,
2013-09-12 19:34:00,67.4,65.6,29.76,WNW,292,0.0,5.0,94,0.00,,,0.20,Wunderground v.1.15,2013-09-12 23:34:00,
2013-09-12 19:40:00,67.4,65.3,29.75,WNW,292,1.0,1.0,93,0.00,,,0.21,Wunderground v.1.15,2013-09-12 23:40:00,
2013-09-12 19:45:00,67.3,65.2,29.75,WNW,292,1.0,5.0,93,0.07,,,0.22,Wunderground v.1.15,2013-09-12 23:45:00,
2013-09-12 19:51:00,67.2,65.1,29.74,WNW,292,0.0,5.0,93,0.07,,,0.22,Wunderground v.1.15,2013-09-12 23:51:00,
2013-09-12 19:57:00,67.2,65.1,29.74,WNW,292,0.0,5.0,93,0.04,,,0.22,Wunderground v.1.15,2013-09-12 23:57:00,
2013-09-12 20:02:00,67.0,64.9,29.74,WNW,292,0.0,5.0,93,0.00,,,0.22,Wunderground v.1.15,2013-09-13 00:02:00,
2013-09-12 20:08:00,66.8,65.0,29.74,WNW,292,0.0,5.0,94,0.00,,,0.23,Wunderground v.1.15,2013-09-13 00:08:00,
2013-09-12 20:14:00,66.6,64.8,29.73,WNW,292,0.0,5.0,94,0.00,,,0.23,Wunderground v.1.15,2013-09-13 00:14:00,
2013-09-12 20:20:00,66.5,64.7,29.72,WNW,292,0.0,5.0,94,0.00,,,0.23,Wunderground v.1.15,2013-09-13 00:20:00,
2013-09-12 20:25:00,66.3,64.5,29.73,WNW,292,0.0,5.0,94,0.00,,,0.23,Wunderground v.1.15,2013-09-13 00:25:00,
2013-09-12 20:31:00,66.2,64.7,29.74,WNW,292,0.0,5.0,95,0.00,,,0.23,Wunderground v.1.15,2013-09-13 00:31:00,
2013-09-12 20:37:00,66.2,64.7,29.74,WNW,292,0.0,5.0,95,0.00,,,0.23,Wunderground v.1.15,2013-09-13 00:37:00,
2013-09-12 20:43:00,66.1,64.6,29.74,WNW,292,0.0,5.0,95,0.00,,,0.23,Wunderground v.1.15,2013-09-13 00:43:00,
2013-09-12 20:48:00,66.1,64.3,29.74,WNW,292,0.0,5.0,94,0.00,,,0.23,Wunderground v.1.15,2013-09-13 00:48:00,
2013-09-12 20:54:00,65.9,64.4,29.74,WNW,292,0.0,5.0,95,0.00,,,0.23,Wunderground v.1.15,2013-09-13 00:54:00,
2013-09-12 21:00:00,65.9,64.4,29.74,WNW,292,0.0,5.0,95,0.00,,,0.23,Wunderground v.1.15,2013-09-13 01:00:00,
2013-09-12 21:06:00,65.9,64.4,29.75,WNW,292,0.0,5.0,95,0.00,,,0.23,Wunderground v.1.15,2013-09-13 01:06:00,
2013-09-12 21:11:00,65.9,64.4,29.75,WNW,292,0.0,5.0,95,0.00,,,0.23,Wunderground v.1.15,2013-09-13 01:11:00,
2013-09-12 21:17:00,65.9,64.4,29.75,WNW,292,0.0,5.0,95,0.00,,,0.23,Wunderground v.1.15,2013-09-13 01:17:00,
2013-09-12 21:23:00,65.8,64.3,29.75,WNW,292,0.0,5.0,95,0.00,,,0.23,Wunderground v.1.15,2013-09-13 01:23:00,
2013-09-12 21:29:00,65.7,64.2,29.75,WNW,292,0.0,5.0,95,0.00,,,0.23,Wunderground v.1.15,2013-09-13 01:29:00,
2013-09-12 21:34:00,65.6,64.1,29.74,WNW,292,0.0,5.0,95,0.00,,,0.23,Wunderground v.1.15,2013-09-13 01:34:00,
2013-09-12 21:39:00,65.6,64.1,29.74,WNW,292,0.0,5.0,95,0.00,,,0.23,Wunderground v.1.15,2013-09-13 01:39:00,
2013-09-12 21:45:00,65.4,63.9,29.74,WNW,292,0.0,5.0,95,0.00,,,0.23,Wunderground v.1.15,2013-09-13 01:45:00,
2013-09-12 21:51:00,65.4,63.9,29.74,WNW,292,0.0,5.0,95,0.00,,,0.23,Wunderground v.1.15,2013-09-13 01:51:00,
2013-09-12 21:57:00,65.3,63.8,29.73,WNW,292,0.0,5.0,95,0.00,,,0.23,Wunderground v.1.15,2013-09-13 01:57:00,
2013-09-12 22:03:00,65.2,64.0,29.74,WNW,292,0.0,5.0,96,0.00,,,0.23,Wunderground v.1.15,2013-09-13 02:03:00,
2013-09-12 22:08:00,65.2,64.0,29.73,WNW,292,0.0,5.0,96,0.00,,,0.23,Wunderground v.1.15,2013-09-13 02:08:00,
2013-09-12 22:14:00,65.2,64.0,29.73,WNW,292,0.0,5.0,96,0.00,,,0.23,Wunderground v.1.15,2013-09-13 02:14:00,
2013-09-12 22:20:00,65.2,64.0,29.73,WNW,292,0.0,5.0,96,0.00,,,0.23,Wunderground v.1.15,2013-09-13 02:20:00,
2013-09-12 22:25:00,65.2,64.0,29.73,WNW,292,0.0,5.0,96,0.00,,,0.23,Wunderground v.1.15,2013-09-13 02:25:00,
2013-09-12 22:31:00,65.2,64.0,29.73,WNW,292,0.0,5.0,96,0.00,,,0.23,Wunderground v.1.15,2013-09-13 02:31:00,
2013-09-12 22:37:00,65.2,64.0,29.73,WNW,292,0.0,5.0,96,0.00,,,0.23,Wunderground v.1.15,2013-09-13 02:37:00,
2013-09-12 22:43:00,65.1,63.9,29.74,WNW,292,0.0,5.0,96,0.00,,,0.24,Wunderground v.1.15,2013-09-13 02:43:00,
2013-09-12 22:48:00,65.1,63.9,29.74,WNW,292,0.0,5.0,96,0.00,,,0.24,Wunderground v.1.15,2013-09-13 02:48:00,
2013-09-12 22:54:00,65.1,63.9,29.73,WNW,292,0.0,5.0,96,0.00,,,0.24,Wunderground v.1.15,2013-09-13 02:54:00,
2013-09-12 22:59:00,65.0,63.8,29.73,WNW,292,0.0,5.0,96,0.00,,,0.24,Wunderground v.1.15,2013-09-13 02:59:00,
2013-09-12 23:05:00,64.9,63.7,29.73,WNW,292,0.0,5.0,96,0.00,,,0.24,Wunderground v.1.15,2013-09-13 03:05:00,
2013-09-12 23:10:00,64.8,63.6,29.72,WNW,292,0.0,5.0,96,0.00,,,0.24,Wunderground v.1.15,2013-09-13 03:10:00,
2013-09-12 23:16:00,64.7,63.5,29.72,WNW,292,0.0,5.0,96,0.00,,,0.24,Wunderground v.1.15,2013-09-13 03:16:00,
2013-09-12 23:22:00,64.6,63.4,29.72,WNW,292,0.0,5.0,96,0.00,,,0.24,Wunderground v.1.15,2013-09-13 03:22:00,
2013-09-12 23:27:00,64.6,63.4,29.72,WNW,292,0.0,5.0,96,0.00,,,0.24,Wunderground v.1.15,2013-09-13 03:27:00,
2013-09-12 23:33:00,64.5,63.3,29.72,WNW,292,0.0,5.0,96,0.00,,,0.24,Wunderground v.1.15,2013-09-13 03:33:00,
2013-09-12 23:39:00,64.5,63.3,29.72,WNW,292,0.0,5.0,96,0.00,,,0.24,Wunderground v.1.15,2013-09-13 03:39:00,
2013-09-12 23:45:00,64.5,63.3,29.72,WNW,292,0.0,5.0,96,0.00,,,0.24,Wunderground v.1.15,2013-09-13 03:45:00,
2013-09-12 23:50:00,64.5,63.3,29.72,WNW,292,0.0,5.0,96,0.00,,,0.24,Wunderground v.1.15,2013-09-13 03:50:00,
2013-09-12 23:56:00,64.5,63.3,29.71,WNW,292,0.0,5.0,96,0.00,,,0.24,Wunderground v.1.15,2013-09-13 03:56:00,